sensor_id;sensor_type;location;lat;lon;timestamp;P1;durP1;ratioP1;P2;durP2;ratioP2
38725;SDS011;24474;48.906;8.808;2022-10-16T00:00:31;1.02;;;0.88;;
38725;SDS011;24474;48.906;8.808;2022-10-16T00:02:57;3.05;;;0.80;;
38725;SDS011;24474;48.906;8.808;2022-10-16T00:05:23;2.42;;;0.70;;
38725;SDS011;24474;48.906;8.808;2022-10-16T00:07:49;2.53;;;0.88;;
38725;SDS011;24474;48.906;8.808;2022-10-16T00:10:15;2.30;;;0.75;;
38725;SDS011;24474;48.906;8.808;2022-10-16T00:12:41;2.42;;;0.80;;
38725;SDS011;24474;48.906;8.808;2022-10-16T00:15:08;3.67;;;0.90;;
38725;SDS011;24474;48.906;8.808;2022-10-16T00:17:34;2.80;;;0.80;;
38725;SDS011;24474;48.906;8.808;2022-10-16T00:20:12;1.33;;;0.70;;
38725;SDS011;24474;48.906;8.808;2022-10-16T00:22:37;2.58;;;0.90;;
38725;SDS011;24474;48.906;8.808;2022-10-16T00:25:03;3.90;;;0.88;;
38725;SDS011;24474;48.906;8.808;2022-10-16T00:27:29;2.78;;;0.60;;
38725;SDS011;24474;48.906;8.808;2022-10-16T00:29:55;2.22;;;0.57;;
38725;SDS011;24474;48.906;8.808;2022-10-16T00:32:23;3.22;;;0.85;;
38725;SDS011;24474;48.906;8.808;2022-10-16T00:34:49;2.13;;;0.68;;
38725;SDS011;24474;48.906;8.808;2022-10-16T00:37:14;5.88;;;0.90;;
38725;SDS011;24474;48.906;8.808;2022-10-16T00:39:40;7.07;;;1.30;;
38725;SDS011;24474;48.906;8.808;2022-10-16T00:42:06;1.30;;;0.70;;
38725;SDS011;24474;48.906;8.808;2022-10-16T00:44:45;3.60;;;0.60;;
38725;SDS011;24474;48.906;8.808;2022-10-16T00:49:59;2.45;;;0.60;;
38725;SDS011;24474;48.906;8.808;2022-10-16T00:52:36;2.47;;;0.80;;
38725;SDS011;24474;48.906;8.808;2022-10-16T00:55:04;1.70;;;0.70;;
38725;SDS011;24474;48.906;8.808;2022-10-16T00:57:31;2.45;;;0.68;;
38725;SDS011;24474;48.906;8.808;2022-10-16T00:59:57;1.63;;;0.75;;
38725;SDS011;24474;48.906;8.808;2022-10-16T01:02:23;3.85;;;0.77;;
38725;SDS011;24474;48.906;8.808;2022-10-16T01:04:50;1.58;;;0.70;;
38725;SDS011;24474;48.906;8.808;2022-10-16T01:12:45;4.00;;;0.60;;
38725;SDS011;24474;48.906;8.808;2022-10-16T01:15:42;3.70;;;0.80;;
38725;SDS011;24474;48.906;8.808;2022-10-16T01:21:29;1.48;;;0.80;;
38725;SDS011;24474;48.906;8.808;2022-10-16T01:24:06;3.22;;;0.80;;
38725;SDS011;24474;48.906;8.808;2022-10-16T01:27:03;1.73;;;0.70;;
38725;SDS011;24474;48.906;8.808;2022-10-16T01:32:13;4.75;;;0.88;;
38725;SDS011;24474;48.906;8.808;2022-10-16T01:34:51;1.23;;;0.63;;
38725;SDS011;24474;48.906;8.808;2022-10-16T01:40:28;1.50;;;0.90;;
38725;SDS011;24474;48.906;8.808;2022-10-16T01:43:07;2.05;;;0.70;;
38725;SDS011;24474;48.906;8.808;2022-10-16T01:45:37;1.38;;;0.80;;
38725;SDS011;24474;48.906;8.808;2022-10-16T01:48:03;3.40;;;0.95;;
38725;SDS011;24474;48.906;8.808;2022-10-16T01:50:33;2.47;;;0.77;;
38725;SDS011;24474;48.906;8.808;2022-10-16T01:53:03;6.00;;;1.05;;
38725;SDS011;24474;48.906;8.808;2022-10-16T01:55:32;1.38;;;0.68;;
38725;SDS011;24474;48.906;8.808;2022-10-16T01:58:02;2.15;;;0.60;;
38725;SDS011;24474;48.906;8.808;2022-10-16T02:00:32;2.70;;;0.90;;
38725;SDS011;24474;48.906;8.808;2022-10-16T02:02:57;5.18;;;0.93;;
38725;SDS011;24474;48.906;8.808;2022-10-16T02:05:27;1.67;;;0.70;;
38725;SDS011;24474;48.906;8.808;2022-10-16T02:08:02;2.20;;;0.90;;
38725;SDS011;24474;48.906;8.808;2022-10-16T02:10:28;1.77;;;1.10;;
38725;SDS011;24474;48.906;8.808;2022-10-16T02:13:30;1.00;;;0.90;;
38725;SDS011;24474;48.906;8.808;2022-10-16T02:16:02;1.52;;;0.80;;
38725;SDS011;24474;48.906;8.808;2022-10-16T02:18:28;4.63;;;1.00;;
38725;SDS011;24474;48.906;8.808;2022-10-16T02:21:07;1.02;;;0.73;;
38725;SDS011;24474;48.906;8.808;2022-10-16T02:24:02;3.53;;;0.90;;
38725;SDS011;24474;48.906;8.808;2022-10-16T02:26:45;2.67;;;0.70;;
38725;SDS011;24474;48.906;8.808;2022-10-16T02:29:16;2.67;;;0.80;;
38725;SDS011;24474;48.906;8.808;2022-10-16T02:31:46;2.23;;;0.83;;
38725;SDS011;24474;48.906;8.808;2022-10-16T02:34:16;2.30;;;0.80;;
38725;SDS011;24474;48.906;8.808;2022-10-16T02:36:45;1.58;;;0.80;;
38725;SDS011;24474;48.906;8.808;2022-10-16T02:39:15;2.05;;;0.70;;
38725;SDS011;24474;48.906;8.808;2022-10-16T02:41:41;4.43;;;0.93;;
38725;SDS011;24474;48.906;8.808;2022-10-16T02:44:07;3.42;;;0.85;;
38725;SDS011;24474;48.906;8.808;2022-10-16T02:46:33;3.22;;;0.80;;
38725;SDS011;24474;48.906;8.808;2022-10-16T02:48:58;2.25;;;0.68;;
38725;SDS011;24474;48.906;8.808;2022-10-16T02:51:24;2.05;;;0.73;;
38725;SDS011;24474;48.906;8.808;2022-10-16T02:53:50;1.45;;;0.70;;
38725;SDS011;24474;48.906;8.808;2022-10-16T02:56:15;2.90;;;0.70;;
38725;SDS011;24474;48.906;8.808;2022-10-16T02:58:41;5.35;;;1.48;;
38725;SDS011;24474;48.906;8.808;2022-10-16T03:01:07;2.67;;;0.75;;
38725;SDS011;24474;48.906;8.808;2022-10-16T03:03:32;2.10;;;0.80;;
38725;SDS011;24474;48.906;8.808;2022-10-16T03:05:58;1.77;;;0.70;;
38725;SDS011;24474;48.906;8.808;2022-10-16T03:08:24;3.50;;;0.70;;
38725;SDS011;24474;48.906;8.808;2022-10-16T03:10:50;1.67;;;0.77;;
38725;SDS011;24474;48.906;8.808;2022-10-16T03:13:16;4.05;;;0.95;;
38725;SDS011;24474;48.906;8.808;2022-10-16T03:15:43;2.00;;;0.85;;
38725;SDS011;24474;48.906;8.808;2022-10-16T03:18:08;2.55;;;1.05;;
38725;SDS011;24474;48.906;8.808;2022-10-16T03:20:34;1.77;;;0.85;;
38725;SDS011;24474;48.906;8.808;2022-10-16T03:23:00;5.90;;;0.73;;
38725;SDS011;24474;48.906;8.808;2022-10-16T03:25:25;5.28;;;0.95;;
38725;SDS011;24474;48.906;8.808;2022-10-16T03:27:51;3.17;;;0.90;;
38725;SDS011;24474;48.906;8.808;2022-10-16T03:30:17;1.75;;;0.70;;
38725;SDS011;24474;48.906;8.808;2022-10-16T03:32:45;1.80;;;0.75;;
38725;SDS011;24474;48.906;8.808;2022-10-16T03:35:11;2.47;;;0.80;;
38725;SDS011;24474;48.906;8.808;2022-10-16T03:37:37;3.58;;;0.90;;
38725;SDS011;24474;48.906;8.808;2022-10-16T03:40:03;3.38;;;0.80;;
38725;SDS011;24474;48.906;8.808;2022-10-16T03:42:30;0.93;;;0.90;;
38725;SDS011;24474;48.906;8.808;2022-10-16T03:44:55;1.42;;;0.77;;
38725;SDS011;24474;48.906;8.808;2022-10-16T03:47:21;3.25;;;0.80;;
38725;SDS011;24474;48.906;8.808;2022-10-16T03:49:48;2.47;;;1.00;;
38725;SDS011;24474;48.906;8.808;2022-10-16T03:52:14;1.05;;;0.80;;
38725;SDS011;24474;48.906;8.808;2022-10-16T03:54:40;3.33;;;1.17;;
38725;SDS011;24474;48.906;8.808;2022-10-16T03:57:06;2.17;;;1.08;;
38725;SDS011;24474;48.906;8.808;2022-10-16T03:59:32;1.42;;;0.70;;
38725;SDS011;24474;48.906;8.808;2022-10-16T04:01:57;2.75;;;0.80;;
38725;SDS011;24474;48.906;8.808;2022-10-16T04:04:23;1.50;;;0.80;;
38725;SDS011;24474;48.906;8.808;2022-10-16T04:06:49;3.22;;;0.90;;
38725;SDS011;24474;48.906;8.808;2022-10-16T04:09:15;2.30;;;0.90;;
38725;SDS011;24474;48.906;8.808;2022-10-16T04:11:41;1.33;;;0.80;;
38725;SDS011;24474;48.906;8.808;2022-10-16T04:14:07;1.92;;;0.80;;
38725;SDS011;24474;48.906;8.808;2022-10-16T04:16:32;1.27;;;0.85;;
38725;SDS011;24474;48.906;8.808;2022-10-16T04:18:58;2.90;;;0.90;;
38725;SDS011;24474;48.906;8.808;2022-10-16T04:21:23;1.42;;;0.80;;
38725;SDS011;24474;48.906;8.808;2022-10-16T04:23:51;2.10;;;0.93;;
38725;SDS011;24474;48.906;8.808;2022-10-16T04:26:16;1.17;;;0.90;;
38725;SDS011;24474;48.906;8.808;2022-10-16T04:28:42;1.95;;;1.02;;
38725;SDS011;24474;48.906;8.808;2022-10-16T04:31:09;4.13;;;1.00;;
38725;SDS011;24474;48.906;8.808;2022-10-16T04:33:35;1.48;;;0.90;;
38725;SDS011;24474;48.906;8.808;2022-10-16T04:36:01;2.13;;;1.00;;
38725;SDS011;24474;48.906;8.808;2022-10-16T04:38:27;1.85;;;0.93;;
38725;SDS011;24474;48.906;8.808;2022-10-16T04:40:53;2.85;;;1.00;;
38725;SDS011;24474;48.906;8.808;2022-10-16T04:43:18;1.83;;;0.90;;
38725;SDS011;24474;48.906;8.808;2022-10-16T04:45:44;2.17;;;0.95;;
38725;SDS011;24474;48.906;8.808;2022-10-16T04:48:11;1.45;;;1.00;;
38725;SDS011;24474;48.906;8.808;2022-10-16T04:50:37;4.13;;;1.13;;
38725;SDS011;24474;48.906;8.808;2022-10-16T04:53:03;1.98;;;0.80;;
38725;SDS011;24474;48.906;8.808;2022-10-16T04:55:31;2.15;;;0.90;;
38725;SDS011;24474;48.906;8.808;2022-10-16T04:57:57;2.38;;;0.90;;
38725;SDS011;24474;48.906;8.808;2022-10-16T05:00:22;7.55;;;4.20;;
38725;SDS011;24474;48.906;8.808;2022-10-16T05:02:51;5.97;;;4.50;;
38725;SDS011;24474;48.906;8.808;2022-10-16T05:05:17;7.50;;;4.32;;
38725;SDS011;24474;48.906;8.808;2022-10-16T05:07:44;5.90;;;4.20;;
38725;SDS011;24474;48.906;8.808;2022-10-16T05:10:10;5.00;;;1.60;;
38725;SDS011;24474;48.906;8.808;2022-10-16T05:12:36;3.88;;;1.67;;
38725;SDS011;24474;48.906;8.808;2022-10-16T05:15:02;1.40;;;1.20;;
38725;SDS011;24474;48.906;8.808;2022-10-16T05:17:28;2.40;;;1.10;;
38725;SDS011;24474;48.906;8.808;2022-10-16T05:19:53;2.20;;;1.20;;
38725;SDS011;24474;48.906;8.808;2022-10-16T05:22:19;1.35;;;1.10;;
38725;SDS011;24474;48.906;8.808;2022-10-16T05:24:44;1.38;;;1.05;;
38725;SDS011;24474;48.906;8.808;2022-10-16T05:27:10;3.63;;;1.20;;
38725;SDS011;24474;48.906;8.808;2022-10-16T05:29:36;2.10;;;1.30;;
38725;SDS011;24474;48.906;8.808;2022-10-16T05:32:02;1.60;;;1.15;;
38725;SDS011;24474;48.906;8.808;2022-10-16T05:34:28;1.67;;;1.02;;
38725;SDS011;24474;48.906;8.808;2022-10-16T05:36:54;5.50;;;1.90;;
38725;SDS011;24474;48.906;8.808;2022-10-16T05:39:19;2.10;;;1.20;;
38725;SDS011;24474;48.906;8.808;2022-10-16T05:41:49;5.55;;;1.10;;
38725;SDS011;24474;48.906;8.808;2022-10-16T05:44:14;2.75;;;1.20;;
38725;SDS011;24474;48.906;8.808;2022-10-16T05:46:40;3.78;;;1.10;;
38725;SDS011;24474;48.906;8.808;2022-10-16T05:49:06;2.50;;;0.95;;
38725;SDS011;24474;48.906;8.808;2022-10-16T05:51:33;3.63;;;1.00;;
38725;SDS011;24474;48.906;8.808;2022-10-16T05:53:58;4.90;;;1.88;;
38725;SDS011;24474;48.906;8.808;2022-10-16T05:56:24;6.97;;;1.27;;
38725;SDS011;24474;48.906;8.808;2022-10-16T05:58:50;2.53;;;1.00;;
38725;SDS011;24474;48.906;8.808;2022-10-16T06:01:16;3.67;;;0.98;;
38725;SDS011;24474;48.906;8.808;2022-10-16T06:03:43;8.55;;;0.90;;
38725;SDS011;24474;48.906;8.808;2022-10-16T06:06:11;2.13;;;1.17;;
38725;SDS011;24474;48.906;8.808;2022-10-16T06:08:38;1.25;;;0.95;;
38725;SDS011;24474;48.906;8.808;2022-10-16T06:11:05;2.58;;;1.13;;
38725;SDS011;24474;48.906;8.808;2022-10-16T06:13:32;2.53;;;1.00;;
38725;SDS011;24474;48.906;8.808;2022-10-16T06:15:58;3.25;;;0.98;;
38725;SDS011;24474;48.906;8.808;2022-10-16T06:18:25;2.05;;;1.00;;
38725;SDS011;24474;48.906;8.808;2022-10-16T06:20:52;3.67;;;1.15;;
38725;SDS011;24474;48.906;8.808;2022-10-16T06:23:18;2.00;;;1.00;;
38725;SDS011;24474;48.906;8.808;2022-10-16T06:25:44;1.75;;;1.02;;
38725;SDS011;24474;48.906;8.808;2022-10-16T06:28:10;1.63;;;1.00;;
38725;SDS011;24474;48.906;8.808;2022-10-16T06:30:36;1.58;;;1.10;;
38725;SDS011;24474;48.906;8.808;2022-10-16T06:33:02;1.42;;;0.95;;
38725;SDS011;24474;48.906;8.808;2022-10-16T06:35:28;2.20;;;1.10;;
38725;SDS011;24474;48.906;8.808;2022-10-16T06:37:54;1.67;;;1.02;;
38725;SDS011;24474;48.906;8.808;2022-10-16T06:40:20;5.47;;;1.13;;
38725;SDS011;24474;48.906;8.808;2022-10-16T06:42:45;2.63;;;1.00;;
38725;SDS011;24474;48.906;8.808;2022-10-16T06:45:11;2.05;;;0.98;;
38725;SDS011;24474;48.906;8.808;2022-10-16T06:47:37;4.43;;;1.10;;
38725;SDS011;24474;48.906;8.808;2022-10-16T06:50:03;4.38;;;1.10;;
38725;SDS011;24474;48.906;8.808;2022-10-16T06:52:31;2.60;;;1.08;;
38725;SDS011;24474;48.906;8.808;2022-10-16T06:54:58;1.88;;;1.10;;
38725;SDS011;24474;48.906;8.808;2022-10-16T06:57:25;1.95;;;0.93;;
38725;SDS011;24474;48.906;8.808;2022-10-16T06:59:52;2.75;;;1.20;;
38725;SDS011;24474;48.906;8.808;2022-10-16T07:02:21;0.88;;;0.82;;
38725;SDS011;24474;48.906;8.808;2022-10-16T07:04:48;3.45;;;1.00;;
38725;SDS011;24474;48.906;8.808;2022-10-16T07:07:14;2.45;;;1.02;;
38725;SDS011;24474;48.906;8.808;2022-10-16T07:09:40;3.03;;;0.98;;
38725;SDS011;24474;48.906;8.808;2022-10-16T07:12:05;2.95;;;1.00;;
38725;SDS011;24474;48.906;8.808;2022-10-16T07:14:31;5.53;;;1.00;;
38725;SDS011;24474;48.906;8.808;2022-10-16T07:16:58;4.88;;;1.00;;
38725;SDS011;24474;48.906;8.808;2022-10-16T07:19:25;1.63;;;0.90;;
38725;SDS011;24474;48.906;8.808;2022-10-16T07:21:52;5.70;;;1.00;;
38725;SDS011;24474;48.906;8.808;2022-10-16T07:24:17;2.85;;;0.93;;
38725;SDS011;24474;48.906;8.808;2022-10-16T07:26:44;3.65;;;1.10;;
38725;SDS011;24474;48.906;8.808;2022-10-16T07:29:15;1.88;;;0.80;;
38725;SDS011;24474;48.906;8.808;2022-10-16T07:31:43;7.18;;;2.72;;
38725;SDS011;24474;48.906;8.808;2022-10-16T07:34:11;4.43;;;1.70;;
38725;SDS011;24474;48.906;8.808;2022-10-16T07:36:40;5.80;;;2.05;;
38725;SDS011;24474;48.906;8.808;2022-10-16T07:39:07;3.83;;;1.30;;
38725;SDS011;24474;48.906;8.808;2022-10-16T07:41:33;1.92;;;1.35;;
38725;SDS011;24474;48.906;8.808;2022-10-16T07:44:02;3.00;;;1.70;;
38725;SDS011;24474;48.906;8.808;2022-10-16T07:46:28;6.97;;;1.40;;
38725;SDS011;24474;48.906;8.808;2022-10-16T07:48:54;3.28;;;1.20;;
38725;SDS011;24474;48.906;8.808;2022-10-16T07:51:23;3.58;;;1.27;;
38725;SDS011;24474;48.906;8.808;2022-10-16T07:53:58;4.22;;;1.13;;
38725;SDS011;24474;48.906;8.808;2022-10-16T07:56:25;4.63;;;1.10;;
38725;SDS011;24474;48.906;8.808;2022-10-16T07:58:51;2.08;;;0.98;;
38725;SDS011;24474;48.906;8.808;2022-10-16T08:01:17;2.03;;;1.08;;
38725;SDS011;24474;48.906;8.808;2022-10-16T08:03:51;2.72;;;1.08;;
38725;SDS011;24474;48.906;8.808;2022-10-16T08:06:27;2.08;;;1.00;;
38725;SDS011;24474;48.906;8.808;2022-10-16T08:08:52;3.83;;;1.10;;
38725;SDS011;24474;48.906;8.808;2022-10-16T08:11:19;2.53;;;0.90;;
38725;SDS011;24474;48.906;8.808;2022-10-16T08:13:45;1.88;;;0.90;;
38725;SDS011;24474;48.906;8.808;2022-10-16T08:16:11;3.03;;;1.40;;
38725;SDS011;24474;48.906;8.808;2022-10-16T08:18:37;3.08;;;1.20;;
38725;SDS011;24474;48.906;8.808;2022-10-16T08:21:04;3.17;;;1.10;;
38725;SDS011;24474;48.906;8.808;2022-10-16T08:23:31;3.08;;;1.05;;
38725;SDS011;24474;48.906;8.808;2022-10-16T08:26:05;4.97;;;1.25;;
38725;SDS011;24474;48.906;8.808;2022-10-16T08:28:38;1.15;;;0.85;;
38725;SDS011;24474;48.906;8.808;2022-10-16T08:31:05;1.48;;;0.95;;
38725;SDS011;24474;48.906;8.808;2022-10-16T08:33:32;1.90;;;0.90;;
38725;SDS011;24474;48.906;8.808;2022-10-16T08:35:59;2.63;;;1.05;;
38725;SDS011;24474;48.906;8.808;2022-10-16T08:38:25;1.60;;;0.93;;
38725;SDS011;24474;48.906;8.808;2022-10-16T08:40:51;2.10;;;1.05;;
38725;SDS011;24474;48.906;8.808;2022-10-16T08:49:12;2.80;;;1.10;;
38725;SDS011;24474;48.906;8.808;2022-10-16T08:51:35;1.50;;;0.82;;
38725;SDS011;24474;48.906;8.808;2022-10-16T08:54:05;2.80;;;1.02;;
38725;SDS011;24474;48.906;8.808;2022-10-16T08:56:40;1.98;;;0.90;;
38725;SDS011;24474;48.906;8.808;2022-10-16T08:59:06;4.95;;;1.25;;
38725;SDS011;24474;48.906;8.808;2022-10-16T09:01:37;1.45;;;0.85;;
38725;SDS011;24474;48.906;8.808;2022-10-16T09:09:28;2.33;;;1.08;;
38725;SDS011;24474;48.906;8.808;2022-10-16T09:18:26;4.68;;;1.00;;
38725;SDS011;24474;48.906;8.808;2022-10-16T09:23:34;2.73;;;1.00;;
38725;SDS011;24474;48.906;8.808;2022-10-16T09:26:01;3.10;;;1.20;;
38725;SDS011;24474;48.906;8.808;2022-10-16T09:28:29;2.72;;;1.30;;
38725;SDS011;24474;48.906;8.808;2022-10-16T09:30:55;6.30;;;1.17;;
38725;SDS011;24474;48.906;8.808;2022-10-16T09:33:22;3.38;;;0.90;;
38725;SDS011;24474;48.906;8.808;2022-10-16T09:35:53;3.42;;;1.20;;
38725;SDS011;24474;48.906;8.808;2022-10-16T09:38:28;3.50;;;1.00;;
38725;SDS011;24474;48.906;8.808;2022-10-16T09:40:59;3.38;;;1.13;;
38725;SDS011;24474;48.906;8.808;2022-10-16T09:44:14;3.50;;;0.90;;
38725;SDS011;24474;48.906;8.808;2022-10-16T09:46:24;5.15;;;1.15;;
38725;SDS011;24474;48.906;8.808;2022-10-16T09:48:59;2.42;;;1.20;;
38725;SDS011;24474;48.906;8.808;2022-10-16T09:51:44;2.67;;;0.98;;
38725;SDS011;24474;48.906;8.808;2022-10-16T09:54:15;1.25;;;0.90;;
38725;SDS011;24474;48.906;8.808;2022-10-16T09:56:47;2.42;;;0.93;;
38725;SDS011;24474;48.906;8.808;2022-10-16T09:59:21;4.88;;;1.00;;
38725;SDS011;24474;48.906;8.808;2022-10-16T10:02:03;3.53;;;0.90;;
38725;SDS011;24474;48.906;8.808;2022-10-16T10:04:37;4.35;;;0.90;;
38725;SDS011;24474;48.906;8.808;2022-10-16T10:07:07;3.88;;;0.90;;
38725;SDS011;24474;48.906;8.808;2022-10-16T10:09:52;2.42;;;0.90;;
38725;SDS011;24474;48.906;8.808;2022-10-16T10:12:26;4.22;;;0.90;;
38725;SDS011;24474;48.906;8.808;2022-10-16T10:14:54;3.95;;;1.00;;
38725;SDS011;24474;48.906;8.808;2022-10-16T10:17:28;2.17;;;1.05;;
38725;SDS011;24474;48.906;8.808;2022-10-16T10:25:15;1.48;;;0.80;;
38725;SDS011;24474;48.906;8.808;2022-10-16T10:36:40;2.00;;;1.00;;
38725;SDS011;24474;48.906;8.808;2022-10-16T10:39:08;1.08;;;0.82;;
38725;SDS011;24474;48.906;8.808;2022-10-16T10:55:43;2.22;;;1.02;;
38725;SDS011;24474;48.906;8.808;2022-10-16T10:58:42;2.35;;;0.90;;
38725;SDS011;24474;48.906;8.808;2022-10-16T11:07:19;3.92;;;0.90;;
38725;SDS011;24474;48.906;8.808;2022-10-16T11:09:58;1.92;;;0.90;;
38725;SDS011;24474;48.906;8.808;2022-10-16T11:12:31;3.05;;;1.10;;
38725;SDS011;24474;48.906;8.808;2022-10-16T11:15:04;2.72;;;1.00;;
38725;SDS011;24474;48.906;8.808;2022-10-16T11:20:23;2.90;;;1.20;;
38725;SDS011;24474;48.906;8.808;2022-10-16T11:25:39;1.50;;;0.70;;
38725;SDS011;24474;48.906;8.808;2022-10-16T11:30:50;1.27;;;0.98;;
38725;SDS011;24474;48.906;8.808;2022-10-16T11:33:31;2.33;;;0.80;;
38725;SDS011;24474;48.906;8.808;2022-10-16T11:36:19;3.03;;;1.00;;
38725;SDS011;24474;48.906;8.808;2022-10-16T11:38:53;4.22;;;1.17;;
38725;SDS011;24474;48.906;8.808;2022-10-16T11:41:48;1.30;;;0.90;;
38725;SDS011;24474;48.906;8.808;2022-10-16T11:47:42;3.53;;;1.20;;
38725;SDS011;24474;48.906;8.808;2022-10-16T11:50:14;2.50;;;1.00;;
38725;SDS011;24474;48.906;8.808;2022-10-16T11:55:23;3.22;;;0.98;;
38725;SDS011;24474;48.906;8.808;2022-10-16T11:58:01;1.92;;;0.80;;
38725;SDS011;24474;48.906;8.808;2022-10-16T12:06:44;1.27;;;0.90;;
38725;SDS011;24474;48.906;8.808;2022-10-16T12:09:24;2.92;;;1.02;;
38725;SDS011;24474;48.906;8.808;2022-10-16T12:11:54;1.95;;;0.90;;
38725;SDS011;24474;48.906;8.808;2022-10-16T12:16:56;1.38;;;0.80;;
38725;SDS011;24474;48.906;8.808;2022-10-16T12:19:25;2.20;;;1.20;;
38725;SDS011;24474;48.906;8.808;2022-10-16T12:21:54;2.42;;;1.00;;
38725;SDS011;24474;48.906;8.808;2022-10-16T12:27:01;3.70;;;1.00;;
38725;SDS011;24474;48.906;8.808;2022-10-16T12:29:33;2.15;;;0.98;;
38725;SDS011;24474;48.906;8.808;2022-10-16T12:32:21;0.80;;;0.80;;
38725;SDS011;24474;48.906;8.808;2022-10-16T12:35:02;3.03;;;1.20;;
38725;SDS011;24474;48.906;8.808;2022-10-16T12:37:33;3.92;;;1.40;;
38725;SDS011;24474;48.906;8.808;2022-10-16T12:40:14;1.35;;;1.00;;
38725;SDS011;24474;48.906;8.808;2022-10-16T12:42:49;3.58;;;1.10;;
38725;SDS011;24474;48.906;8.808;2022-10-16T12:45:29;5.68;;;1.20;;
38725;SDS011;24474;48.906;8.808;2022-10-16T12:48:02;2.83;;;1.08;;
38725;SDS011;24474;48.906;8.808;2022-10-16T12:50:42;5.22;;;1.17;;
38725;SDS011;24474;48.906;8.808;2022-10-16T12:53:24;2.63;;;1.15;;
38725;SDS011;24474;48.906;8.808;2022-10-16T13:07:28;3.25;;;1.20;;
38725;SDS011;24474;48.906;8.808;2022-10-16T13:15:51;4.32;;;1.20;;
38725;SDS011;24474;48.906;8.808;2022-10-16T13:18:38;2.03;;;0.98;;
38725;SDS011;24474;48.906;8.808;2022-10-16T13:21:18;1.58;;;0.80;;
38725;SDS011;24474;48.906;8.808;2022-10-16T13:24:19;1.83;;;1.08;;
38725;SDS011;24474;48.906;8.808;2022-10-16T13:29:16;2.42;;;1.02;;
38725;SDS011;24474;48.906;8.808;2022-10-16T13:31:43;2.60;;;0.90;;
38725;SDS011;24474;48.906;8.808;2022-10-16T13:34:14;2.80;;;0.82;;
38725;SDS011;24474;48.906;8.808;2022-10-16T13:36:44;3.80;;;1.40;;
38725;SDS011;24474;48.906;8.808;2022-10-16T13:39:13;6.35;;;1.10;;
38725;SDS011;24474;48.906;8.808;2022-10-16T13:41:46;2.47;;;0.95;;
38725;SDS011;24474;48.906;8.808;2022-10-16T13:44:23;4.13;;;1.10;;
38725;SDS011;24474;48.906;8.808;2022-10-16T13:46:59;2.08;;;1.00;;
38725;SDS011;24474;48.906;8.808;2022-10-16T13:49:26;3.13;;;1.10;;
38725;SDS011;24474;48.906;8.808;2022-10-16T13:51:56;3.53;;;1.05;;
38725;SDS011;24474;48.906;8.808;2022-10-16T13:54:25;3.35;;;1.10;;
38725;SDS011;24474;48.906;8.808;2022-10-16T13:56:53;3.83;;;1.10;;
38725;SDS011;24474;48.906;8.808;2022-10-16T13:59:35;3.42;;;1.23;;
38725;SDS011;24474;48.906;8.808;2022-10-16T14:02:21;4.53;;;1.45;;
38725;SDS011;24474;48.906;8.808;2022-10-16T14:05:00;10.68;;;6.72;;
38725;SDS011;24474;48.906;8.808;2022-10-16T14:07:31;10.95;;;6.72;;
38725;SDS011;24474;48.906;8.808;2022-10-16T14:10:04;5.10;;;2.72;;
38725;SDS011;24474;48.906;8.808;2022-10-16T14:12:32;2.88;;;1.70;;
38725;SDS011;24474;48.906;8.808;2022-10-16T14:14:59;2.63;;;1.50;;
38725;SDS011;24474;48.906;8.808;2022-10-16T14:17:31;2.58;;;1.20;;
38725;SDS011;24474;48.906;8.808;2022-10-16T14:20:00;2.28;;;1.20;;
38725;SDS011;24474;48.906;8.808;2022-10-16T14:22:30;4.20;;;1.48;;
38725;SDS011;24474;48.906;8.808;2022-10-16T14:28:03;3.30;;;1.52;;
38725;SDS011;24474;48.906;8.808;2022-10-16T14:30:48;3.22;;;1.23;;
38725;SDS011;24474;48.906;8.808;2022-10-16T14:33:35;4.18;;;1.25;;
38725;SDS011;24474;48.906;8.808;2022-10-16T14:38:38;1.85;;;1.15;;
38725;SDS011;24474;48.906;8.808;2022-10-16T14:41:06;2.53;;;1.50;;
38725;SDS011;24474;48.906;8.808;2022-10-16T14:43:39;5.20;;;1.40;;
38725;SDS011;24474;48.906;8.808;2022-10-16T14:46:13;3.05;;;1.80;;
38725;SDS011;24474;48.906;8.808;2022-10-16T14:48:42;4.65;;;1.40;;
38725;SDS011;24474;48.906;8.808;2022-10-16T14:51:17;3.53;;;2.53;;
38725;SDS011;24474;48.906;8.808;2022-10-16T14:53:55;26.05;;;22.55;;
38725;SDS011;24474;48.906;8.808;2022-10-16T14:56:23;15.70;;;10.20;;
38725;SDS011;24474;48.906;8.808;2022-10-16T14:59:18;5.03;;;2.83;;
38725;SDS011;24474;48.906;8.808;2022-10-16T15:01:54;3.20;;;2.10;;
38725;SDS011;24474;48.906;8.808;2022-10-16T15:04:21;5.10;;;2.55;;
38725;SDS011;24474;48.906;8.808;2022-10-16T15:06:50;5.47;;;3.40;;
38725;SDS011;24474;48.906;8.808;2022-10-16T15:09:17;5.50;;;2.70;;
38725;SDS011;24474;48.906;8.808;2022-10-16T15:11:43;6.95;;;4.35;;
38725;SDS011;24474;48.906;8.808;2022-10-16T15:14:11;11.18;;;5.82;;
38725;SDS011;24474;48.906;8.808;2022-10-16T15:16:40;11.25;;;7.45;;
38725;SDS011;24474;48.906;8.808;2022-10-16T15:19:07;12.98;;;6.20;;
38725;SDS011;24474;48.906;8.808;2022-10-16T15:21:33;13.20;;;3.70;;
38725;SDS011;24474;48.906;8.808;2022-10-16T15:23:59;3.55;;;2.20;;
38725;SDS011;24474;48.906;8.808;2022-10-16T15:26:28;2.65;;;1.23;;
38725;SDS011;24474;48.906;8.808;2022-10-16T15:28:55;4.18;;;1.52;;
38725;SDS011;24474;48.906;8.808;2022-10-16T15:31:21;3.00;;;1.30;;
38725;SDS011;24474;48.906;8.808;2022-10-16T15:33:51;2.30;;;1.40;;
38725;SDS011;24474;48.906;8.808;2022-10-16T15:36:26;2.42;;;1.40;;
38725;SDS011;24474;48.906;8.808;2022-10-16T15:38:53;3.72;;;2.13;;
38725;SDS011;24474;48.906;8.808;2022-10-16T15:41:20;1.95;;;1.20;;
38725;SDS011;24474;48.906;8.808;2022-10-16T15:43:51;2.83;;;1.33;;
38725;SDS011;24474;48.906;8.808;2022-10-16T15:46:19;2.45;;;1.67;;
38725;SDS011;24474;48.906;8.808;2022-10-16T15:48:46;1.67;;;1.20;;
38725;SDS011;24474;48.906;8.808;2022-10-16T15:51:24;3.35;;;1.50;;
38725;SDS011;24474;48.906;8.808;2022-10-16T15:53:52;6.13;;;1.58;;
38725;SDS011;24474;48.906;8.808;2022-10-16T15:56:20;4.60;;;1.80;;
38725;SDS011;24474;48.906;8.808;2022-10-16T15:58:47;4.93;;;3.20;;
38725;SDS011;24474;48.906;8.808;2022-10-16T16:01:13;7.55;;;2.30;;
38725;SDS011;24474;48.906;8.808;2022-10-16T16:03:41;5.75;;;2.30;;
38725;SDS011;24474;48.906;8.808;2022-10-16T16:06:11;4.60;;;2.65;;
38725;SDS011;24474;48.906;8.808;2022-10-16T16:08:39;4.47;;;2.60;;
38725;SDS011;24474;48.906;8.808;2022-10-16T16:11:13;9.05;;;3.03;;
38725;SDS011;24474;48.906;8.808;2022-10-16T16:16:22;7.97;;;3.25;;
38725;SDS011;24474;48.906;8.808;2022-10-16T16:18:48;10.48;;;4.13;;
38725;SDS011;24474;48.906;8.808;2022-10-16T16:21:18;10.73;;;5.25;;
38725;SDS011;24474;48.906;8.808;2022-10-16T16:23:44;9.02;;;4.15;;
38725;SDS011;24474;48.906;8.808;2022-10-16T16:26:13;7.60;;;3.63;;
38725;SDS011;24474;48.906;8.808;2022-10-16T16:28:52;6.88;;;3.63;;
38725;SDS011;24474;48.906;8.808;2022-10-16T16:31:19;7.10;;;3.05;;
38725;SDS011;24474;48.906;8.808;2022-10-16T16:33:50;7.22;;;2.20;;
38725;SDS011;24474;48.906;8.808;2022-10-16T16:36:17;4.95;;;2.10;;
38725;SDS011;24474;48.906;8.808;2022-10-16T16:38:44;4.97;;;2.20;;
38725;SDS011;24474;48.906;8.808;2022-10-16T16:41:17;8.50;;;3.15;;
38725;SDS011;24474;48.906;8.808;2022-10-16T16:43:47;13.80;;;7.63;;
38725;SDS011;24474;48.906;8.808;2022-10-16T16:46:13;10.80;;;6.53;;
38725;SDS011;24474;48.906;8.808;2022-10-16T16:48:40;9.13;;;4.57;;
38725;SDS011;24474;48.906;8.808;2022-10-16T16:51:13;7.22;;;3.05;;
38725;SDS011;24474;48.906;8.808;2022-10-16T16:53:46;6.78;;;3.28;;
38725;SDS011;24474;48.906;8.808;2022-10-16T16:56:17;11.07;;;2.75;;
38725;SDS011;24474;48.906;8.808;2022-10-16T16:58:47;7.88;;;3.05;;
38725;SDS011;24474;48.906;8.808;2022-10-16T17:01:14;9.70;;;4.32;;
38725;SDS011;24474;48.906;8.808;2022-10-16T17:03:42;11.65;;;4.22;;
38725;SDS011;24474;48.906;8.808;2022-10-16T17:06:10;9.85;;;3.50;;
38725;SDS011;24474;48.906;8.808;2022-10-16T17:08:38;9.13;;;3.50;;